createdAt,value
2018-11-22T12:15:53.690Z,98458.80
2018-11-22T12:18:24.361Z,98456.63
2018-11-22T12:20:55.268Z,98454.86
2018-11-22T12:23:25.722Z,98463.34
2018-11-22T12:25:56.285Z,98457.92
2018-11-22T12:28:26.841Z,98454.82
2018-11-22T12:30:57.261Z,98454.25
2018-11-22T12:33:43.869Z,98444.22
2018-11-22T12:36:19.460Z,98451.70
2018-11-22T12:38:49.974Z,98449.08
2018-11-22T12:41:20.688Z,98453.37
2018-11-22T12:43:51.434Z,98450.81
2018-11-22T12:46:21.980Z,98454.92
2018-11-22T12:48:52.399Z,98456.72
2018-11-22T12:51:22.903Z,98456.26
2018-11-22T12:53:53.264Z,98447.15
2018-11-22T12:56:23.721Z,98449.31
2018-11-22T12:58:54.231Z,98445.00
2018-11-22T13:01:24.876Z,98443.12
2018-11-22T13:03:55.398Z,98446.38
2018-11-22T13:06:25.956Z,98449.59
2018-11-22T13:08:56.543Z,98450.48
2018-11-22T13:11:26.977Z,98451.90
2018-11-22T13:13:57.467Z,98445.37
2018-11-22T13:16:27.833Z,98448.72
2018-11-22T13:18:59.374Z,98441.22
2018-11-22T13:21:28.873Z,98447.67
2018-11-22T13:23:59.604Z,98452.84
2018-11-22T13:26:30.246Z,98455.56
2018-11-22T13:29:00.761Z,98455.56
2018-11-22T13:31:31.252Z,98454.56
2018-11-22T13:34:01.711Z,98447.58
2018-11-22T13:36:32.431Z,98454.60
2018-11-22T13:39:03.120Z,98448.63
2018-11-22T13:41:33.594Z,98454.17
2018-11-22T13:44:03.948Z,98457.25
2018-11-22T13:46:34.446Z,98452.88
2018-11-22T13:49:05.397Z,98454.97
2018-11-22T13:51:36.732Z,98454.27
2018-11-22T13:54:06.714Z,98453.41
2018-11-22T13:56:38.067Z,98459.52
2018-11-22T13:59:08.657Z,98460.97
2018-11-22T14:01:39.032Z,98464.05
2018-11-22T14:04:09.529Z,98465.92
2018-11-22T14:06:40.242Z,98466.28
2018-11-22T14:09:11.391Z,98466.72
2018-11-22T14:11:41.841Z,98466.68
2018-11-22T14:14:12.368Z,98462.48
2018-11-22T14:16:42.777Z,98465.59
2018-11-22T14:19:16.321Z,98464.23
2018-11-22T14:21:46.844Z,98467.72
2018-11-22T14:24:17.298Z,98463.38
2018-11-22T14:26:47.817Z,98462.91
2018-11-22T14:29:18.364Z,98465.53
2018-11-22T14:31:48.793Z,98470.04
2018-11-22T14:34:19.389Z,98473.03
2018-11-22T14:36:50.092Z,98472.56
2018-11-22T14:39:20.465Z,98479.56
2018-11-22T14:41:50.830Z,98482.25
2018-11-22T14:44:21.283Z,98484.03
2018-11-22T14:46:51.790Z,98490.96
2018-11-22T14:49:22.304Z,98491.34
2018-11-22T14:51:54.050Z,98495.72
2018-11-22T14:54:24.476Z,98497.54
2018-11-22T14:56:56.174Z,98501.44
2018-11-22T14:59:26.618Z,98497.20
2018-11-22T15:01:57.562Z,98505.37
2018-11-22T15:04:27.966Z,98511.41
2018-11-22T15:07:00.652Z,98509.71
2018-11-22T15:09:31.278Z,98512.72
2018-11-22T15:12:01.793Z,98511.45
2018-11-22T15:14:32.551Z,98511.94
2018-11-22T15:17:03.087Z,98507.64
2018-11-22T15:19:33.886Z,98511.94
2018-11-22T15:22:04.602Z,98516.25
2018-11-22T15:24:35.020Z,98519.76
2018-11-22T15:27:05.684Z,98518.47
2018-11-22T15:29:36.198Z,98523.23
2018-11-22T15:32:06.756Z,98524.96
2018-11-22T15:34:37.262Z,98525.01
2018-11-22T15:37:07.882Z,98529.32
2018-11-22T15:39:38.852Z,98528.05
2018-11-22T15:42:09.426Z,98532.41
2018-11-22T15:44:40.105Z,98522.53
2018-11-22T15:47:10.912Z,98522.53
2018-11-22T15:49:41.558Z,98517.39
2018-11-22T15:52:12.038Z,98524.70
2018-11-22T15:54:42.730Z,98520.88
2018-11-22T15:57:13.890Z,98523.84
2018-11-22T15:59:44.328Z,98523.89
2018-11-22T16:02:14.932Z,98519.60
2018-11-22T16:04:45.682Z,98519.62
2018-11-22T16:07:16.146Z,98522.20
2018-11-22T16:09:46.626Z,98522.69
2018-11-22T16:12:17.199Z,98511.52
2018-11-22T16:14:47.776Z,98512.41
2018-11-22T16:17:18.353Z,98507.29
2018-11-22T16:19:49.927Z,98507.30
2018-11-22T16:22:20.499Z,98511.17
2018-11-22T16:24:50.847Z,98503.93
2018-11-22T16:27:21.174Z,98508.23
2018-11-22T16:29:51.796Z,98510.38
2018-11-22T16:32:22.659Z,98512.55
2018-11-22T16:34:53.333Z,98504.46
2018-11-22T16:37:24.135Z,98503.24
2018-11-22T16:39:54.815Z,98496.88
2018-11-22T16:42:25.391Z,98494.36
2018-11-22T16:44:55.944Z,98499.09
2018-11-22T16:47:26.478Z,98505.10
2018-11-22T16:49:57.005Z,98501.66
2018-11-22T16:52:27.481Z,98508.48
2018-11-22T16:54:58.183Z,98511.05
2018-11-22T16:57:28.871Z,98497.80
2018-11-22T16:59:59.538Z,98513.32
2018-11-22T17:02:30.284Z,98519.83
2018-11-22T17:05:01.020Z,98518.55
2018-11-22T17:07:31.472Z,98514.30
2018-11-22T17:10:02.056Z,98519.02
2018-11-22T17:12:32.538Z,98519.41
2018-11-22T17:15:03.116Z,98527.12
2018-11-22T17:17:33.663Z,98529.27
2018-11-22T17:20:04.514Z,98533.52
2018-11-22T17:22:36.391Z,98533.94
2018-11-22T17:25:09.756Z,98536.46
2018-11-22T17:27:40.446Z,98530.86
2018-11-22T17:30:14.466Z,98535.96
2018-11-22T17:32:45.459Z,98538.95
2018-11-22T17:35:20.168Z,98537.24
2018-11-22T17:37:50.981Z,98536.39
2018-11-22T17:40:25.924Z,98541.12
2018-11-22T17:42:56.394Z,98543.31
2018-11-22T17:45:28.334Z,98537.31
2018-11-22T17:47:58.865Z,98541.61
2018-11-22T17:50:30.878Z,98549.77
2018-11-22T17:53:01.872Z,98545.91
2018-11-22T17:55:33.411Z,98545.48
2018-11-22T17:58:04.209Z,98545.47
2018-11-22T18:00:37.198Z,98550.62
2018-11-22T18:03:08.068Z,98554.05
2018-11-22T18:05:38.732Z,98555.77
2018-11-22T18:08:09.104Z,98550.20
2018-11-22T18:10:40.757Z,98549.78
2018-11-22T18:13:11.194Z,98542.09
2018-11-22T18:15:57.103Z,98539.95
2018-11-22T18:18:28.628Z,98541.24
2018-11-22T18:20:59.312Z,98530.09
2018-11-22T18:26:07.553Z,98536.58
2018-11-22T18:28:38.515Z,98540.06
2018-11-22T18:31:08.863Z,98540.06
2018-11-22T18:33:39.360Z,98533.19
2018-11-22T18:36:10.424Z,98539.63
2018-11-22T18:38:40.974Z,98541.78
2018-11-22T18:41:11.556Z,98545.65
2018-11-22T18:43:44.407Z,98545.22
2018-11-22T18:46:14.819Z,98546.52
2018-11-22T18:48:45.296Z,98542.22
2018-11-22T18:51:15.997Z,98546.50
2018-11-22T18:53:46.449Z,98537.48
2018-11-22T18:56:19.746Z,98541.78
2018-11-22T18:58:50.583Z,98540.06
2018-11-22T19:01:21.412Z,98543.02
2018-11-22T19:03:51.869Z,98540.88
2018-11-22T19:06:22.711Z,98540.88
2018-11-22T19:08:53.689Z,98547.30
2018-11-22T19:11:27.546Z,98551.59
2018-11-22T19:13:58.113Z,98548.16
2018-11-22T19:16:31.137Z,98546.88
2018-11-22T19:19:01.678Z,98544.30
2018-11-22T19:21:40.907Z,98552.47
2018-11-22T19:24:06.536Z,98552.89
2018-11-22T19:26:37.040Z,98553.75
2018-11-22T19:29:08.004Z,98553.75
2018-11-22T19:31:38.647Z,98554.60
2018-11-22T19:34:09.385Z,98553.32
2018-11-22T19:36:40.055Z,98552.90
2018-11-22T19:39:10.818Z,98555.91
2018-11-22T19:41:41.447Z,98552.94
2018-11-22T19:44:12.148Z,98554.66
2018-11-22T19:46:45.384Z,98551.66
2018-11-22T19:49:16.038Z,98549.98
2018-11-22T19:51:47.269Z,98554.30
2018-11-22T19:54:18.220Z,98554.34
2018-11-22T19:56:49.123Z,98556.53
2018-11-22T19:59:20.273Z,98561.68
2018-11-22T20:01:51.450Z,98558.67
2018-11-22T20:04:22.546Z,98555.67
2018-11-22T20:06:53.101Z,98560.78
2018-11-22T20:09:23.718Z,98560.78
2018-11-22T20:11:54.526Z,98564.64
2018-11-22T20:14:25.068Z,98569.36
2018-11-22T20:16:55.888Z,98569.79
2018-11-22T20:19:26.393Z,98581.38
2018-11-22T20:21:57.168Z,98582.23
2018-11-22T20:24:27.738Z,98583.05
2018-11-22T20:26:58.482Z,98589.92
2018-11-22T20:29:29.151Z,98589.92
2018-11-22T20:31:59.723Z,98585.66
2018-11-22T20:34:30.247Z,98589.53
2018-11-22T20:37:01.010Z,98589.10
2018-11-22T20:39:31.535Z,98585.66
2018-11-22T20:42:02.210Z,98588.67
2018-11-22T20:44:32.816Z,98599.40
2018-11-22T20:47:03.441Z,98602.37
2018-11-22T20:49:34.269Z,98599.80
2018-11-22T20:52:04.787Z,98603.22
2018-11-22T20:54:35.312Z,98595.06
2018-11-22T20:57:06.005Z,98602.80
2018-11-22T20:59:36.841Z,98606.22
2018-11-22T21:02:07.610Z,98603.22
2018-11-22T21:04:38.136Z,98601.93
2018-11-22T21:07:08.842Z,98593.78
2018-11-22T21:09:39.396Z,98591.20
2018-11-22T21:12:10.022Z,98591.64
2018-11-22T21:14:40.732Z,98591.67
2018-11-22T21:17:11.250Z,98586.96
2018-11-22T21:19:41.939Z,98589.14
2018-11-22T21:22:12.747Z,98586.58
2018-11-22T21:24:43.296Z,98593.48
2018-11-22T21:27:13.690Z,98593.08
2018-11-22T21:29:44.219Z,98585.83
2018-11-22T21:32:14.888Z,98582.42
2018-11-22T21:34:45.422Z,98577.73
2018-11-22T21:37:15.886Z,98582.51
2018-11-22T21:39:46.536Z,98586.79
2018-11-22T21:42:17.316Z,98591.53
2018-11-22T21:44:47.624Z,98591.53
2018-11-22T21:47:18.210Z,98594.97
2018-11-22T21:49:53.322Z,98600.09
2018-11-22T21:52:23.830Z,98602.23
2018-11-22T21:54:54.328Z,98602.23
2018-11-22T21:57:24.948Z,98606.52
2018-11-22T21:59:55.443Z,98600.52
2018-11-22T22:02:25.893Z,98598.77
2018-11-22T22:04:56.414Z,98591.06
2018-11-22T22:07:26.962Z,98590.20
2018-11-22T22:09:57.694Z,98582.08
2018-11-22T22:12:28.380Z,98584.22
2018-11-22T22:14:58.798Z,98585.53
2018-11-22T22:17:29.328Z,98591.96
2018-11-22T22:19:59.776Z,98582.95
2018-11-22T22:22:30.276Z,98575.23
2018-11-22T22:25:02.086Z,98582.95
2018-11-22T22:27:32.642Z,98587.67
2018-11-22T22:30:03.418Z,98586.84
2018-11-22T22:32:34.032Z,98591.12
2018-11-22T22:35:06.258Z,98596.26
2018-11-22T22:37:37.344Z,98596.69
2018-11-22T22:40:10.798Z,98589.41
2018-11-22T22:42:42.433Z,98588.98
2018-11-22T22:45:14.053Z,98591.55
2018-11-22T22:47:45.444Z,98592.81
2018-11-22T22:50:22.954Z,98586.82
2018-11-22T22:52:54.904Z,98587.67
2018-11-22T22:55:25.466Z,98587.67
2018-11-22T22:57:58.951Z,98587.24
2018-11-22T23:00:50.660Z,98590.24
2018-11-22T23:03:21.506Z,98593.67
2018-11-22T23:05:52.105Z,98591.97
2018-11-22T23:08:22.808Z,98588.53
2018-11-22T23:10:53.444Z,98589.39
2018-11-22T23:13:24.140Z,98588.97
2018-11-22T23:15:56.627Z,98585.96
2018-11-22T23:18:27.156Z,98585.53
2018-11-22T23:20:57.745Z,98579.53
2018-11-22T23:23:28.318Z,98570.98
2018-11-22T23:25:58.958Z,98579.98
2018-11-22T23:28:29.780Z,98578.69
2018-11-22T23:31:00.349Z,98582.55
2018-11-22T23:33:31.284Z,98576.55
2018-11-22T23:36:01.700Z,98586.84
2018-11-22T23:38:32.288Z,98588.95
2018-11-22T23:41:02.825Z,98579.55
2018-11-22T23:43:33.668Z,98581.67
2018-11-22T23:46:04.213Z,98580.38
2018-11-22T23:48:34.566Z,98585.95
2018-11-22T23:51:05.195Z,98589.81
2018-11-22T23:53:35.694Z,98595.81
2018-11-22T23:56:07.191Z,98591.53
2018-11-22T23:58:38.503Z,98591.53
